Hauptseite
METAR-TAF:

METAR-TAF

Flughäfen :

United States Naval Academy

Annapolis, Maryland, Vereinigte Staaten

Breite: 38-59-29N, Länge: 076-29-00W, Höhe: 2 m

Beobachtung

Neuester Wetterbericht von vor 1 Stunde und 3 Minuten, um 16:54 UTC
Wind 3 kt aus Süd/Südost
Temperatur 18°C
Luftfeuchtigkeit 77%
Luftdruck 1024 hPa
Sichtweite: 16.1 km
Geschlossene Wolkendecke in der Höhe von 1900 ft

METAR: KNAK 251654Z AUTO 15003KT 10SM OVC019 18/14 A3023 RMK AO2 SLP240 T01780144

Zeit: 13:57 (17:57 UTC)


TAF: fehlend

Wetterbeobachtungen und Prognosen von mehr als 4000 Flughäfen (METAR und TAF Bericht).

Die verfügbaren Stationen werden durch gelbe und rote Markierungen auf der Karte dargestellt.

Führen Sie die Maus auf sie, um den Namen der Station zu sehen.

Darauf klicken, um die Beobachtung von Wetterbeobachtungen und Prognosen zu sehen.

Um die Karte zu ändern : klicken Sie auf den grünen Tasten mit einem schwarzen Kreuz Zum Vergrößern, auf den grünen Button mit einem Gedankenstrich zu verkleinern, oder auf die grünen Pfeile für benachbarte Karten.


METAR-TAF: